createdAt,value
2018-05-12T00:00:34.272Z,14.07
2018-05-12T00:03:02.569Z,16.67
2018-05-12T00:05:30.091Z,13.60
2018-05-12T00:07:58.383Z,12.67
2018-05-12T00:10:25.923Z,14.67
2018-05-12T00:12:54.244Z,15.50
2018-05-12T00:15:21.771Z,14.37
2018-05-12T00:17:50.113Z,17.43
2018-05-12T00:20:17.728Z,14.07
2018-05-12T00:22:45.260Z,14.87
2018-05-12T00:25:13.552Z,13.43
2018-05-12T00:27:41.118Z,15.97
2018-05-12T00:30:08.689Z,16.50
2018-05-12T00:32:36.238Z,13.33
2018-05-12T00:35:03.780Z,13.47
2018-05-12T00:37:31.300Z,14.37
2018-05-12T00:39:58.824Z,13.23
2018-05-12T00:42:26.376Z,13.60
2018-05-12T00:44:53.905Z,13.63
2018-05-12T00:47:21.476Z,12.90
2018-05-12T00:49:49.002Z,13.87
2018-05-12T00:52:17.911Z,13.40
2018-05-12T00:54:45.502Z,12.30
2018-05-12T00:57:13.032Z,13.63
2018-05-12T00:59:40.571Z,13.77
2018-05-12T01:02:08.852Z,14.07
2018-05-12T01:04:37.479Z,13.63
2018-05-12T01:07:05.012Z,13.27
2018-05-12T01:09:32.547Z,12.67
2018-05-12T01:12:00.868Z,14.17
2018-05-12T01:14:28.416Z,15.60
2018-05-12T01:16:56.041Z,14.60
2018-05-12T01:19:23.651Z,14.10
2018-05-12T01:21:51.997Z,16.67
2018-05-12T01:24:19.623Z,13.23
2018-05-12T01:26:47.916Z,13.63
2018-05-12T01:29:15.472Z,13.67
2018-05-12T01:31:43.035Z,13.17
2018-05-12T01:34:10.693Z,13.93
2018-05-12T01:36:38.271Z,13.50
2018-05-12T01:39:05.836Z,13.23
2018-05-12T01:41:33.356Z,13.87
2018-05-12T01:44:01.651Z,12.60
2018-05-12T01:46:29.164Z,12.47
2018-05-12T01:48:56.691Z,12.33
2018-05-12T01:51:24.204Z,12.60
2018-05-12T01:53:52.507Z,12.53
2018-05-12T01:56:20.055Z,12.13
2018-05-12T01:58:47.591Z,13.53
2018-05-12T02:01:15.987Z,13.47
2018-05-12T02:03:43.503Z,13.23
2018-05-12T02:06:11.035Z,11.87
2018-05-12T02:08:38.572Z,13.87
2018-05-12T02:11:06.099Z,14.63
2018-05-12T02:13:34.392Z,15.17
2018-05-12T02:16:02.017Z,12.77
2018-05-12T02:18:30.333Z,13.00
2018-05-12T02:20:57.855Z,12.97
2018-05-12T02:23:26.206Z,16.40
2018-05-12T02:25:53.742Z,14.93
2018-05-12T02:28:22.008Z,14.87
2018-05-12T02:30:49.531Z,14.27
2018-05-12T02:33:17.828Z,15.07
2018-05-12T02:35:45.399Z,13.27
2018-05-12T02:38:12.948Z,11.93
2018-05-12T02:40:40.481Z,12.60
2018-05-12T02:43:08.001Z,13.57
2018-05-12T02:45:35.620Z,12.93
2018-05-12T02:48:03.200Z,12.53
2018-05-12T02:50:30.749Z,14.53
2018-05-12T02:52:58.270Z,12.03
2018-05-12T02:55:25.854Z,11.33
2018-05-12T02:57:53.372Z,12.30
2018-05-12T03:00:21.668Z,13.00
2018-05-12T03:02:49.199Z,11.40
2018-05-12T03:05:17.513Z,12.80
2018-05-12T03:07:45.027Z,10.60
2018-05-12T03:10:13.312Z,11.70
2018-05-12T03:12:41.623Z,11.27
2018-05-12T03:15:09.153Z,14.17
2018-05-12T03:17:36.744Z,12.97
2018-05-12T03:20:04.278Z,11.93
2018-05-12T03:22:31.817Z,11.20
2018-05-12T03:25:00.117Z,12.90
2018-05-12T03:27:27.684Z,12.53
2018-05-12T03:29:55.211Z,12.80
2018-05-12T03:32:23.512Z,13.07
2018-05-12T03:34:51.028Z,13.30
2018-05-12T03:37:19.329Z,13.73
2018-05-12T03:39:46.901Z,13.37
2018-05-12T03:42:14.464Z,14.47
2018-05-12T03:44:41.988Z,13.37
2018-05-12T03:47:10.270Z,13.23
2018-05-12T03:49:38.565Z,13.13
2018-05-12T03:52:06.076Z,17.17
2018-05-12T03:54:33.615Z,12.57
2018-05-12T03:57:01.137Z,14.67
2018-05-12T03:59:28.676Z,13.40
2018-05-12T04:01:56.960Z,12.93
2018-05-12T04:04:36.323Z,14.73
2018-05-12T04:07:15.659Z,13.20
2018-05-12T04:09:55.183Z,11.70
2018-05-12T04:12:33.380Z,12.63
2018-05-12T04:15:00.999Z,13.17
2018-05-12T04:17:28.527Z,12.73
2018-05-12T04:19:56.045Z,16.03
2018-05-12T04:22:23.617Z,13.80
2018-05-12T04:24:51.152Z,12.70
2018-05-12T04:27:18.668Z,18.03
2018-05-12T04:29:46.196Z,12.83
2018-05-12T04:32:13.726Z,12.97
2018-05-12T04:34:41.242Z,13.33
2018-05-12T04:37:08.783Z,14.20
2018-05-12T04:39:36.304Z,13.50
2018-05-12T04:42:03.815Z,14.30
2018-05-12T04:44:31.429Z,13.70
2018-05-12T04:46:58.999Z,13.70
2018-05-12T04:49:26.536Z,13.33
2018-05-12T04:51:54.061Z,15.63
2018-05-12T04:54:21.586Z,14.77
2018-05-12T04:56:49.172Z,15.27
2018-05-12T04:59:16.703Z,13.10
2018-05-12T05:01:44.235Z,15.57
2018-05-12T05:04:11.761Z,15.37
2018-05-12T05:06:40.036Z,13.13
2018-05-12T05:09:08.336Z,15.83
2018-05-12T05:11:35.848Z,14.33
2018-05-12T05:14:04.140Z,13.30
2018-05-12T05:16:32.442Z,15.87
2018-05-12T05:18:59.955Z,17.40
2018-05-12T05:21:27.644Z,15.77
2018-05-12T05:23:57.748Z,16.40
2018-05-12T05:26:26.040Z,13.80
2018-05-12T05:28:53.560Z,15.73
2018-05-12T05:31:21.103Z,16.30
2018-05-12T05:33:48.620Z,13.97
2018-05-12T05:36:16.157Z,15.73
2018-05-12T05:38:44.434Z,15.23
2018-05-12T05:41:12.733Z,15.30
2018-05-12T05:43:40.248Z,15.73
2018-05-12T05:46:07.779Z,15.50
2018-05-12T05:48:35.313Z,16.33
2018-05-12T05:51:02.852Z,16.60
2018-05-12T05:53:30.380Z,17.70
2018-05-12T05:55:57.925Z,16.70
2018-05-12T05:58:25.498Z,17.20
2018-05-12T06:00:53.004Z,15.53
2018-05-12T06:03:20.580Z,15.70
2018-05-12T06:05:48.105Z,13.30
2018-05-12T06:08:15.613Z,13.50
2018-05-12T06:10:43.171Z,14.67
2018-05-12T06:13:10.734Z,16.77
2018-05-12T06:15:38.277Z,14.00
2018-05-12T06:18:05.827Z,18.20
2018-05-12T06:20:33.456Z,17.03
2018-05-12T06:23:01.008Z,15.60
2018-05-12T06:25:28.564Z,15.90
2018-05-12T06:27:56.175Z,16.93
2018-05-12T06:30:24.588Z,15.93
2018-05-12T06:32:53.796Z,16.57
2018-05-12T06:35:21.337Z,15.13
2018-05-12T06:37:49.644Z,15.47
2018-05-12T06:40:17.175Z,15.67
2018-05-12T06:42:46.014Z,19.30
2018-05-12T06:45:13.538Z,16.97
2018-05-12T06:47:41.085Z,15.97
2018-05-12T06:50:08.634Z,17.93
2018-05-12T06:52:36.931Z,18.10
2018-05-12T06:55:04.559Z,17.77
2018-05-12T06:57:32.852Z,18.97
2018-05-12T07:00:00.423Z,19.50
2018-05-12T07:02:27.997Z,17.27
2018-05-12T07:04:55.540Z,17.63
2018-05-12T07:07:23.077Z,15.30
2018-05-12T07:09:50.740Z,16.07
2018-05-12T07:12:18.355Z,16.40
2018-05-12T07:14:45.975Z,17.00
2018-05-12T07:17:13.538Z,17.07
2018-05-12T07:19:41.072Z,18.13
2018-05-12T07:22:08.612Z,22.33
2018-05-12T07:24:36.910Z,23.57
2018-05-12T07:27:04.449Z,24.90
2018-05-12T07:29:32.811Z,21.77
2018-05-12T07:32:00.292Z,25.50
2018-05-12T07:34:27.842Z,25.27
2018-05-12T07:36:57.500Z,25.67
2018-05-12T07:39:25.008Z,23.07
2018-05-12T07:41:53.313Z,23.00
2018-05-12T07:44:20.857Z,24.00
2018-05-12T07:46:48.397Z,24.80
2018-05-12T07:49:16.690Z,31.07
2018-05-12T07:51:44.238Z,28.47
2018-05-12T07:54:11.762Z,25.63
2018-05-12T07:56:39.281Z,27.20
2018-05-12T07:59:06.834Z,25.30
2018-05-12T08:01:34.350Z,23.93
2018-05-12T08:04:02.656Z,26.30
2018-05-12T08:06:30.220Z,29.30
2018-05-12T08:08:57.747Z,29.33
2018-05-12T08:11:26.053Z,25.07
2018-05-12T08:13:53.580Z,22.83
2018-05-12T08:16:23.808Z,18.60
2018-05-12T08:18:51.400Z,26.30
2018-05-12T08:21:18.959Z,25.67
2018-05-12T08:23:46.488Z,22.13
2018-05-12T08:26:14.021Z,23.47
2018-05-12T08:28:42.337Z,18.37
2018-05-12T08:31:09.907Z,23.90
2018-05-12T08:33:37.442Z,21.73
2018-05-12T08:36:04.973Z,20.10
2018-05-12T08:38:33.281Z,16.70
2018-05-12T08:41:00.856Z,18.67
2018-05-12T08:43:28.378Z,19.00
2018-05-12T08:45:55.913Z,15.30
2018-05-12T08:48:23.505Z,14.63
2018-05-12T08:50:51.037Z,13.13
2018-05-12T08:53:21.252Z,16.57
2018-05-12T08:55:49.568Z,11.23
2018-05-12T08:58:17.116Z,10.17
2018-05-12T09:00:44.659Z,11.73
2018-05-12T09:03:12.940Z,8.23
2018-05-12T09:05:40.480Z,7.17
2018-05-12T09:08:08.781Z,6.83
2018-05-12T09:10:36.322Z,6.33
2018-05-12T09:13:04.621Z,10.23
2018-05-12T09:15:32.156Z,9.30
2018-05-12T09:18:00.446Z,7.93
2018-05-12T09:20:28.004Z,7.80
2018-05-12T09:22:55.589Z,9.73
2018-05-12T09:25:23.149Z,8.30
2018-05-12T09:27:50.669Z,10.53
2018-05-12T09:30:18.205Z,9.70
2018-05-12T09:32:46.513Z,8.07
2018-05-12T09:35:14.039Z,7.57
2018-05-12T09:37:42.329Z,9.60
2018-05-12T09:40:10.622Z,7.33
2018-05-12T09:42:38.187Z,8.33
2018-05-12T09:45:05.742Z,10.57
2018-05-12T09:47:34.810Z,11.60
2018-05-12T09:50:03.111Z,14.10
2018-05-12T09:52:30.651Z,11.07
2018-05-12T09:54:58.198Z,10.60
2018-05-12T09:57:26.480Z,13.00
2018-05-12T09:59:54.800Z,13.50
2018-05-12T10:02:22.337Z,11.33
2018-05-12T10:04:49.885Z,12.87
2018-05-12T10:07:17.400Z,10.77
2018-05-12T10:09:44.949Z,12.73
2018-05-12T10:12:12.492Z,13.47
2018-05-12T10:14:40.041Z,11.27
2018-05-12T10:17:07.585Z,12.73
2018-05-12T10:19:35.117Z,10.53
2018-05-12T10:22:03.421Z,8.53
2018-05-12T10:24:30.956Z,7.73
2018-05-12T10:26:58.487Z,10.93
2018-05-12T10:29:26.024Z,8.43
2018-05-12T10:31:54.805Z,6.93
2018-05-12T10:34:22.316Z,7.37
2018-05-12T10:36:49.843Z,9.93
2018-05-12T10:39:17.368Z,9.20
2018-05-12T10:41:44.915Z,9.67
2018-05-12T10:44:12.451Z,8.07
2018-05-12T10:46:39.961Z,7.33
2018-05-12T10:49:07.496Z,5.80
2018-05-12T10:51:35.024Z,5.00
2018-05-12T10:54:02.571Z,5.27
2018-05-12T10:56:30.866Z,4.77
2018-05-12T10:58:58.463Z,9.10
2018-05-12T11:01:26.720Z,6.20
2018-05-12T11:03:54.481Z,5.30
2018-05-12T11:06:22.008Z,5.33
2018-05-12T11:08:49.529Z,5.93
2018-05-12T11:11:17.055Z,5.53
2018-05-12T11:13:44.568Z,4.83
2018-05-12T11:16:15.048Z,8.33
2018-05-12T11:18:42.568Z,4.20
2018-05-12T11:21:10.163Z,4.70
2018-05-12T11:23:37.682Z,5.00
2018-05-12T11:26:05.240Z,4.80
2018-05-12T11:28:32.769Z,4.83
2018-05-12T11:31:01.083Z,4.20
2018-05-12T11:33:28.749Z,5.23
2018-05-12T11:35:56.281Z,8.40
2018-05-12T11:38:25.788Z,10.07
2018-05-12T11:40:53.361Z,4.40
2018-05-12T11:43:20.996Z,4.60
2018-05-12T11:45:49.276Z,6.93
2018-05-12T11:48:17.582Z,6.40
2018-05-12T11:50:45.109Z,5.80
2018-05-12T11:53:12.664Z,7.03
2018-05-12T11:55:40.970Z,7.40
2018-05-12T11:58:08.501Z,9.67
2018-05-12T12:00:36.035Z,7.23
2018-05-12T12:03:04.355Z,8.57
2018-05-12T12:05:31.916Z,7.93
2018-05-12T12:08:00.549Z,6.73
2018-05-12T12:10:28.079Z,9.33
2018-05-12T12:12:55.597Z,6.23
2018-05-12T12:15:23.159Z,5.73
2018-05-12T12:17:50.685Z,6.77
2018-05-12T12:20:18.993Z,4.60
2018-05-12T12:22:46.525Z,7.90
2018-05-12T12:25:14.845Z,9.40
2018-05-12T12:27:42.360Z,7.47
2018-05-12T12:30:10.756Z,6.17
2018-05-12T12:32:38.284Z,5.93
2018-05-12T12:35:06.605Z,5.90
2018-05-12T12:37:34.143Z,7.10
2018-05-12T12:40:01.689Z,4.97
2018-05-12T12:42:29.997Z,4.87
2018-05-12T12:44:57.565Z,5.37
2018-05-12T12:47:28.119Z,5.87
2018-05-12T12:49:55.659Z,8.53
2018-05-12T12:52:23.177Z,6.20
2018-05-12T12:54:50.702Z,5.93
2018-05-12T12:57:18.307Z,6.50
2018-05-12T12:59:45.820Z,4.90
2018-05-12T13:02:13.372Z,5.00
2018-05-12T13:04:41.665Z,5.33
2018-05-12T13:07:09.961Z,4.50
2018-05-12T13:09:37.522Z,5.03
2018-05-12T13:12:05.067Z,5.73
2018-05-12T13:14:32.581Z,6.17
2018-05-12T13:17:00.125Z,8.70
2018-05-12T13:19:27.647Z,5.47
2018-05-12T13:21:55.193Z,6.37
2018-05-12T13:24:22.748Z,7.00
2018-05-12T13:26:50.284Z,7.30
2018-05-12T13:29:17.897Z,7.00
2018-05-12T13:31:47.062Z,7.13
2018-05-12T13:34:15.359Z,10.20
2018-05-12T13:36:42.880Z,6.17
2018-05-12T13:39:11.220Z,5.40
2018-05-12T13:41:38.774Z,6.03
2018-05-12T13:44:06.377Z,5.77
2018-05-12T13:46:34.765Z,5.73
2018-05-12T13:49:03.060Z,6.37
2018-05-12T13:51:30.605Z,4.33
2018-05-12T13:53:58.185Z,15.60
2018-05-12T13:56:25.716Z,4.87
2018-05-12T13:58:53.239Z,6.23
2018-05-12T14:01:20.808Z,4.37
2018-05-12T14:03:48.420Z,4.20
2018-05-12T14:06:15.951Z,5.80
2018-05-12T14:08:43.487Z,4.00
2018-05-12T14:11:11.776Z,5.00
2018-05-12T14:13:40.067Z,4.33
2018-05-12T14:16:07.709Z,3.77
2018-05-12T14:18:35.159Z,3.00
2018-05-12T14:21:03.488Z,7.70
2018-05-12T14:23:31.016Z,5.30
2018-05-12T14:25:58.549Z,2.90
2018-05-12T14:28:26.944Z,3.10
2018-05-12T14:30:54.499Z,3.43
2018-05-12T14:33:22.028Z,3.30
2018-05-12T14:35:49.553Z,5.67
2018-05-12T14:38:17.112Z,2.43
2018-05-12T14:40:44.626Z,3.87
2018-05-12T14:43:12.931Z,2.27
2018-05-12T14:45:40.443Z,2.87
2018-05-12T14:48:08.740Z,2.50
2018-05-12T14:50:36.297Z,2.17
2018-05-12T14:53:03.816Z,2.60
2018-05-12T14:55:31.424Z,3.03
2018-05-12T14:57:58.971Z,2.27
2018-05-12T15:00:26.496Z,3.23
2018-05-12T15:02:54.024Z,4.63
2018-05-12T15:05:21.549Z,4.33
2018-05-12T15:07:49.072Z,5.33
2018-05-12T15:10:16.607Z,5.50
2018-05-12T15:12:44.184Z,4.23
2018-05-12T15:15:11.721Z,4.97
2018-05-12T15:17:39.266Z,4.40
2018-05-12T15:20:06.801Z,4.07
2018-05-12T15:22:34.344Z,3.27
2018-05-12T15:25:01.887Z,6.90
2018-05-12T15:27:29.450Z,4.23
2018-05-12T15:29:57.806Z,5.07
2018-05-12T15:32:25.340Z,3.67
2018-05-12T15:34:52.873Z,3.63
2018-05-12T15:37:20.400Z,2.90
2018-05-12T15:39:48.780Z,3.97
2018-05-12T15:42:17.080Z,4.23
2018-05-12T15:44:46.518Z,4.00
2018-05-12T15:47:14.056Z,3.43
2018-05-12T15:49:41.589Z,4.10
2018-05-12T15:52:09.163Z,3.27
2018-05-12T15:54:36.693Z,3.70
2018-05-12T15:57:04.232Z,3.00
2018-05-12T15:59:32.541Z,3.40
2018-05-12T16:02:00.078Z,4.77
2018-05-12T16:04:28.363Z,4.77
2018-05-12T16:06:55.896Z,4.40
2018-05-12T16:09:24.185Z,4.83
2018-05-12T16:11:51.702Z,3.90
2018-05-12T16:14:19.324Z,2.90
2018-05-12T16:16:46.852Z,4.50
2018-05-12T16:19:15.147Z,5.73
2018-05-12T16:21:42.680Z,3.60
2018-05-12T16:24:10.987Z,9.70
2018-05-12T16:26:38.502Z,4.90
2018-05-12T16:29:06.062Z,3.73
2018-05-12T16:31:34.499Z,5.13
2018-05-12T16:34:02.016Z,3.40
2018-05-12T16:36:29.576Z,5.13
2018-05-12T16:38:57.872Z,4.80
2018-05-12T16:41:25.413Z,6.47
2018-05-12T16:43:52.936Z,4.10
2018-05-12T16:46:22.011Z,3.93
2018-05-12T16:48:49.557Z,5.30
2018-05-12T16:51:19.966Z,4.83
2018-05-12T16:53:47.509Z,3.77
2018-05-12T16:56:15.042Z,5.40
2018-05-12T16:58:43.376Z,3.50
2018-05-12T17:01:10.896Z,4.87
2018-05-12T17:03:38.458Z,4.00
2018-05-12T17:06:06.001Z,4.00
2018-05-12T17:08:34.404Z,4.67
2018-05-12T17:11:02.041Z,4.27
2018-05-12T17:13:29.617Z,6.83
2018-05-12T17:16:00.157Z,3.77
2018-05-12T17:18:27.723Z,5.03
2018-05-12T17:20:55.238Z,4.17
2018-05-12T17:23:23.599Z,3.50
2018-05-12T17:25:51.128Z,3.93
2018-05-12T17:28:18.654Z,3.90
2018-05-12T17:30:46.212Z,4.07
2018-05-12T17:33:13.749Z,3.90
2018-05-12T17:35:42.053Z,4.77
2018-05-12T17:38:09.636Z,4.37
2018-05-12T17:40:37.179Z,4.23
2018-05-12T17:43:04.693Z,4.27
2018-05-12T17:45:33.009Z,4.10
2018-05-12T17:48:00.514Z,4.47
2018-05-12T17:50:28.846Z,6.03
2018-05-12T17:52:56.364Z,5.53
2018-05-12T17:55:23.948Z,4.13
2018-05-12T17:57:51.522Z,4.03
2018-05-12T18:00:19.044Z,4.43
2018-05-12T18:02:46.617Z,9.57
2018-05-12T18:05:14.137Z,4.23
2018-05-12T18:07:42.467Z,3.90
2018-05-12T18:10:09.985Z,4.17
2018-05-12T18:12:38.300Z,3.90
2018-05-12T18:15:05.948Z,4.67
2018-05-12T18:17:33.480Z,7.87
2018-05-12T18:20:01.088Z,4.07
2018-05-12T18:22:28.610Z,4.60
2018-05-12T18:24:56.156Z,5.33
2018-05-12T18:27:24.485Z,4.37
2018-05-12T18:29:52.068Z,5.33
2018-05-12T18:32:19.597Z,4.77
2018-05-12T18:34:47.158Z,4.33
2018-05-12T18:37:14.719Z,6.50
2018-05-12T18:39:43.758Z,5.00
2018-05-12T18:42:11.304Z,4.60
2018-05-12T18:44:39.318Z,5.10
2018-05-12T18:47:06.858Z,4.97
2018-05-12T18:49:34.405Z,6.00
2018-05-12T18:52:03.665Z,5.27
2018-05-12T18:54:31.193Z,6.67
2018-05-12T18:56:58.776Z,5.23
2018-05-12T18:59:26.327Z,7.87
2018-05-12T19:01:54.697Z,6.80
2018-05-12T19:04:22.303Z,13.33
2018-05-12T19:06:49.889Z,6.77
2018-05-12T19:09:17.482Z,5.40
2018-05-12T19:11:45.081Z,5.13
2018-05-12T19:14:12.639Z,6.97
2018-05-12T19:16:40.938Z,6.00
2018-05-12T19:19:08.503Z,4.37
2018-05-12T19:21:36.035Z,5.07
2018-05-12T19:24:03.605Z,6.37
2018-05-12T19:26:31.148Z,5.63
2018-05-12T19:28:58.680Z,7.83
2018-05-12T19:31:26.255Z,5.63
2018-05-12T19:33:54.601Z,4.80
2018-05-12T19:36:22.175Z,6.27
2018-05-12T19:38:50.494Z,10.63
2018-05-12T19:41:18.033Z,5.77
2018-05-12T19:43:45.640Z,7.10
2018-05-12T19:46:13.908Z,7.07
2018-05-12T19:48:41.522Z,6.57
2018-05-12T19:51:09.142Z,6.73
2018-05-12T19:53:36.680Z,8.30
2018-05-12T19:56:04.228Z,5.10
2018-05-12T19:58:31.764Z,6.07
2018-05-12T20:00:59.337Z,5.57
2018-05-12T20:03:26.884Z,5.13
2018-05-12T20:05:54.460Z,5.23
2018-05-12T20:08:22.013Z,5.50
2018-05-12T20:10:49.567Z,5.33
2018-05-12T20:13:21.003Z,9.23
2018-05-12T20:15:48.585Z,4.90
2018-05-12T20:18:16.122Z,6.13
2018-05-12T20:20:43.661Z,7.13
2018-05-12T20:23:11.988Z,5.30
2018-05-12T20:25:39.536Z,4.50
2018-05-12T20:28:07.073Z,4.03
2018-05-12T20:30:34.747Z,4.10
2018-05-12T20:33:02.302Z,4.40
2018-05-12T20:35:29.837Z,4.10
2018-05-12T20:37:57.372Z,3.67
2018-05-12T20:40:25.682Z,3.77
2018-05-12T20:42:53.260Z,6.30
2018-05-12T20:45:20.831Z,4.23
2018-05-12T20:47:48.380Z,5.33
2018-05-12T20:50:15.910Z,4.57
2018-05-12T20:52:47.406Z,7.17
2018-05-12T20:55:15.015Z,4.30
2018-05-12T20:57:42.544Z,4.43
2018-05-12T21:00:10.854Z,4.47
2018-05-12T21:02:38.376Z,4.33
2018-05-12T21:05:05.923Z,3.90
2018-05-12T21:07:33.453Z,4.43
2018-05-12T21:10:00.981Z,6.17
2018-05-12T21:12:28.551Z,3.83
2018-05-12T21:14:56.094Z,3.70
2018-05-12T21:17:23.634Z,4.00
2018-05-12T21:19:51.929Z,5.13
2018-05-12T21:22:19.496Z,4.27
2018-05-12T21:24:47.123Z,4.77
2018-05-12T21:27:15.428Z,4.27
2018-05-12T21:29:43.098Z,3.30
2018-05-12T21:32:10.640Z,3.30
2018-05-12T21:34:38.311Z,4.13
2018-05-12T21:37:05.848Z,4.23
2018-05-12T21:39:34.153Z,5.33
2018-05-12T21:42:01.744Z,4.00
2018-05-12T21:44:29.324Z,4.20
2018-05-12T21:46:57.642Z,4.13
2018-05-12T21:49:25.194Z,4.80
2018-05-12T21:51:52.729Z,5.87
2018-05-12T21:54:21.036Z,4.10
2018-05-12T21:56:48.597Z,3.30
2018-05-12T21:59:16.140Z,5.37
2018-05-12T22:01:43.804Z,4.03
2018-05-12T22:04:11.327Z,4.13
2018-05-12T22:06:39.617Z,4.30
2018-05-12T22:09:07.930Z,3.93
2018-05-12T22:11:35.473Z,4.77
2018-05-12T22:14:03.132Z,5.03
2018-05-12T22:16:30.665Z,4.63
2018-05-12T22:18:59.000Z,4.40
2018-05-12T22:21:26.526Z,4.73
2018-05-12T22:23:54.104Z,4.50
2018-05-12T22:26:21.616Z,4.40
2018-05-12T22:28:49.903Z,6.70
2018-05-12T22:31:17.445Z,4.70
2018-05-12T22:33:45.756Z,8.93
2018-05-12T22:36:13.309Z,8.20
2018-05-12T22:38:40.837Z,5.20
2018-05-12T22:41:09.140Z,4.50
2018-05-12T22:43:36.667Z,5.10
2018-05-12T22:46:04.955Z,4.27
2018-05-12T22:48:32.559Z,4.67
2018-05-12T22:51:00.816Z,4.93
2018-05-12T22:53:28.428Z,4.57
2018-05-12T22:55:56.729Z,7.50
2018-05-12T22:58:24.259Z,5.80
2018-05-12T23:00:52.573Z,6.90
2018-05-12T23:03:20.116Z,6.50
2018-05-12T23:05:47.653Z,5.97
2018-05-12T23:08:15.955Z,5.30
2018-05-12T23:10:43.488Z,6.20
2018-05-12T23:13:11.800Z,5.40
2018-05-12T23:15:39.306Z,6.00
2018-05-12T23:18:07.727Z,5.33
2018-05-12T23:20:35.262Z,10.43
2018-05-12T23:23:03.572Z,5.77
2018-05-12T23:25:31.092Z,9.90
2018-05-12T23:27:59.475Z,5.40
2018-05-12T23:30:27.006Z,5.93
2018-05-12T23:32:54.543Z,5.33
2018-05-12T23:35:22.065Z,5.90
2018-05-12T23:37:49.582Z,6.10
2018-05-12T23:40:17.893Z,6.50
2018-05-12T23:42:45.407Z,5.03
2018-05-12T23:45:12.923Z,8.23
2018-05-12T23:47:40.433Z,5.40
2018-05-12T23:50:08.808Z,5.93
2018-05-12T23:52:37.128Z,5.57
2018-05-12T23:55:04.695Z,5.83
2018-05-12T23:57:32.236Z,5.60
2018-05-12T23:59:59.786Z,5.87
